Time;durP1;ratioP1;P1;durP2;ratioP2;P2;SDS_P1;SDS_P2;PMS_P1;PMS_P2;Temp;Humidity;BMP_temperature;BMP_pressure;BME280_temperature;BME280_humidity;BME280_pressure;Samples;Min_cycle;Max_cycle;Signal;HPM_P1;HPM_P2
2022/09/04 00:01:28;;;;;;;0.70;0.20;;;17.20;99.90;;;;;;5013141;28;20497;-84
2022/09/04 00:04:29;;;;;;;0.70;0.30;;;17.20;99.90;;;;;;5014940;28;20021;-83
2022/09/04 00:07:13;;;;;;;0.88;0.30;;;17.30;99.90;;;;;;5014251;28;20085;-81
2022/09/04 00:09:41;;;;;;;0.98;0.30;;;17.20;99.90;;;;;;5043614;28;20021;-83
2022/09/04 00:12:08;;;;;;;1.02;0.25;;;17.10;99.90;;;;;;5033180;28;20626;-83
2022/09/04 00:14:51;;;;;;;0.60;0.40;;;17.20;99.90;;;;;;5034422;28;20493;-81
2022/09/04 00:17:33;;;;;;;0.55;0.30;;;17.20;99.90;;;;;;5039438;28;20039;-81
2022/09/04 00:20:10;;;;;;;1.27;0.30;;;17.10;99.90;;;;;;5045314;28;20027;-82
2022/09/04 00:22:51;;;;;;;1.15;0.40;;;17.10;99.90;;;;;;5012686;28;20040;-82
2022/09/04 00:25:51;;;;;;;0.47;0.28;;;17.10;99.90;;;;;;5011861;28;20030;-80
2022/09/04 00:28:31;;;;;;;0.95;0.50;;;17.00;99.90;;;;;;5011878;28;20490;-81
2022/09/04 00:31:12;;;;;;;1.30;0.40;;;17.00;99.90;;;;;;5028529;28;20029;-83
2022/09/04 00:33:45;;;;;;;1.05;0.43;;;17.00;99.90;;;;;;5039594;28;20025;-80
2022/09/04 00:36:13;;;;;;;2.35;0.50;;;16.90;99.90;;;;;;5069044;28;20107;-80
2022/09/04 00:38:57;;;;;;;1.08;0.40;;;16.90;99.90;;;;;;5052052;28;20733;-82
2022/09/04 00:41:38;;;;;;;6.95;0.45;;;16.90;99.90;;;;;;5048182;28;20602;-83
2022/09/04 00:44:31;;;;;;;0.93;0.50;;;16.80;99.90;;;;;;5012335;28;20366;-82
2022/09/04 00:47:30;;;;;;;0.50;0.30;;;16.80;99.90;;;;;;5032526;28;20120;-83
2022/09/04 00:50:39;;;;;;;0.50;0.30;;;16.70;99.90;;;;;;5049079;28;20044;-83
2022/09/04 00:53:33;;;;;;;5.07;0.40;;;16.80;99.90;;;;;;5032056;28;20031;-82
2022/09/04 00:56:28;;;;;;;1.33;0.50;;;16.80;99.90;;;;;;5025941;28;20830;-84
2022/09/04 00:59:05;;;;;;;0.70;0.40;;;16.70;99.90;;;;;;5034964;28;20021;-83
2022/09/04 01:01:30;;;;;;;0.85;0.50;;;16.60;99.90;;;;;;5033402;28;20033;-84
2022/09/04 01:04:24;;;;;;;3.88;0.50;;;16.70;99.90;;;;;;5034489;28;20078;-84
2022/09/04 01:07:00;;;;;;;2.42;0.57;;;16.70;99.90;;;;;;5051378;28;20033;-84
2022/09/04 01:09:43;;;;;;;1.27;0.30;;;16.70;99.90;;;;;;5032617;28;20385;-85
2022/09/04 01:12:45;;;;;;;3.17;0.30;;;16.70;99.90;;;;;;5033342;28;20397;-84
2022/09/04 01:15:14;;;;;;;1.27;0.55;;;16.60;99.90;;;;;;5019448;28;20420;-85
2022/09/04 01:18:23;;;;;;;1.67;0.50;;;16.60;99.90;;;;;;5033598;28;20091;-85
2022/09/04 01:20:57;;;;;;;1.83;0.30;;;16.50;99.90;;;;;;4997686;28;20038;-84
2022/09/04 01:23:41;;;;;;;5.68;0.40;;;16.50;99.90;;;;;;5034049;28;20036;-85
2022/09/04 01:26:45;;;;;;;1.15;0.30;;;16.40;99.90;;;;;;5033167;28;20041;-84
2022/09/04 01:29:29;;;;;;;0.95;0.30;;;16.40;99.90;;;;;;5050802;28;20059;-84
2022/09/04 01:32:08;;;;;;;0.60;0.30;;;16.40;99.90;;;;;;5051550;28;20029;-84
2022/09/04 01:34:49;;;;;;;0.60;0.30;;;16.40;99.90;;;;;;5033095;28;20025;-84
2022/09/04 01:37:23;;;;;;;0.93;0.40;;;16.40;99.90;;;;;;5033260;28;20025;-83
2022/09/04 01:40:14;;;;;;;1.42;0.50;;;16.30;99.90;;;;;;5033346;28;20367;-84
2022/09/04 01:42:51;;;;;;;1.10;0.40;;;16.30;99.90;;;;;;5050718;28;20054;-86
2022/09/04 01:45:41;;;;;;;1.38;0.45;;;16.30;99.90;;;;;;5033400;28;20044;-85
2022/09/04 01:48:13;;;;;;;0.75;0.30;;;16.30;99.90;;;;;;5032846;28;20052;-85
2022/09/04 01:50:44;;;;;;;1.17;0.40;;;16.20;99.90;;;;;;5049608;28;20017;-84
2022/09/04 01:53:38;;;;;;;2.28;0.65;;;16.20;99.90;;;;;;5030799;28;20043;-85
2022/09/04 01:56:27;;;;;;;1.27;0.60;;;16.20;99.90;;;;;;5029281;28;20029;-85
2022/09/04 01:59:06;;;;;;;0.60;0.30;;;16.20;99.90;;;;;;5031646;28;20045;-84
2022/09/04 02:01:44;;;;;;;4.22;0.85;;;16.20;99.90;;;;;;5033241;28;20040;-84
2022/09/04 02:04:11;;;;;;;1.02;0.50;;;16.20;99.90;;;;;;5032362;28;20025;-85
2022/09/04 02:06:58;;;;;;;3.53;0.40;;;16.10;99.90;;;;;;5050091;28;20033;-84
2022/09/04 02:09:26;;;;;;;1.20;0.60;;;16.10;99.90;;;;;;5050508;28;20090;-83
2022/09/04 02:12:22;;;;;;;1.27;0.50;;;16.00;99.90;;;;;;5032879;28;20025;-84
2022/09/04 02:15:11;;;;;;;0.73;0.30;;;16.10;99.90;;;;;;5044258;28;20025;-84
2022/09/04 02:18:01;;;;;;;0.70;0.30;;;16.00;99.90;;;;;;5070618;28;20029;-84
2022/09/04 02:20:29;;;;;;;1.65;0.40;;;16.00;99.90;;;;;;5052805;28;20021;-85
2022/09/04 02:23:10;;;;;;;1.80;0.60;;;16.00;99.90;;;;;;5052233;28;20028;-86
2022/09/04 02:25:54;;;;;;;2.10;0.50;;;15.90;99.90;;;;;;5052153;28;20040;-84
2022/09/04 02:28:39;;;;;;;3.72;0.57;;;15.90;99.90;;;;;;5052437;28;20442;-84
2022/09/04 02:31:28;;;;;;;1.02;0.40;;;15.90;99.90;;;;;;5052095;28;20021;-84
2022/09/04 02:34:06;;;;;;;0.98;0.38;;;15.80;99.90;;;;;;5065057;28;20020;-84
2022/09/04 02:36:46;;;;;;;1.35;0.45;;;15.80;99.90;;;;;;5041764;28;20476;-84
2022/09/04 02:39:21;;;;;;;0.43;0.30;;;15.80;99.90;;;;;;5038940;28;20045;-83
2022/09/04 02:42:02;;;;;;;1.92;0.45;;;15.80;99.90;;;;;;5037268;28;20024;-82
2022/09/04 02:44:49;;;;;;;2.03;0.50;;;15.80;99.90;;;;;;5047517;28;20044;-84
2022/09/04 02:47:44;;;;;;;3.72;0.60;;;15.80;99.90;;;;;;5069888;28;20048;-84
2022/09/04 02:50:37;;;;;;;0.75;0.40;;;15.80;99.90;;;;;;5062429;28;20028;-84
2022/09/04 02:53:30;;;;;;;1.70;0.47;;;15.70;99.90;;;;;;5034007;28;20572;-85
2022/09/04 02:56:10;;;;;;;1.05;0.40;;;15.80;99.90;;;;;;5031690;28;20036;-84
2022/09/04 02:59:14;;;;;;;1.13;0.52;;;15.80;99.90;;;;;;5031952;28;20029;-85
2022/09/04 03:02:02;;;;;;;2.20;0.60;;;15.90;99.90;;;;;;5031584;28;20091;-85
2022/09/04 03:04:50;;;;;;;2.00;0.32;;;15.90;99.90;;;;;;5032448;28;20072;-85
2022/09/04 03:07:51;;;;;;;1.25;0.50;;;15.80;99.90;;;;;;5065487;28;20131;-83
2022/09/04 03:10:34;;;;;;;2.03;0.50;;;15.80;99.90;;;;;;5032898;28;20170;-84
2022/09/04 03:13:33;;;;;;;4.00;0.52;;;15.80;99.90;;;;;;5070130;28;20112;-84
2022/09/04 03:16:08;;;;;;;0.90;0.50;;;15.80;99.90;;;;;;5030721;28;20034;-84
2022/09/04 03:19:13;;;;;;;0.60;0.40;;;15.90;99.90;;;;;;5034006;28;20129;-85
2022/09/04 03:21:44;;;;;;;1.00;0.40;;;15.90;99.90;;;;;;5036029;28;20773;-84
2022/09/04 03:24:22;;;;;;;0.93;0.40;;;15.80;99.90;;;;;;5053274;28;20508;-85
2022/09/04 03:27:10;;;;;;;0.75;0.32;;;15.90;99.90;;;;;;5053709;28;20055;-84
2022/09/04 03:29:52;;;;;;;1.77;0.43;;;15.90;99.90;;;;;;5035755;28;20104;-84
2022/09/04 03:32:27;;;;;;;1.42;0.40;;;15.90;99.90;;;;;;5035931;28;20024;-84
2022/09/04 03:35:12;;;;;;;0.88;0.50;;;16.00;99.90;;;;;;5036139;28;20024;-85
2022/09/04 03:38:07;;;;;;;3.45;0.50;;;16.00;99.90;;;;;;5035315;28;20227;-85
2022/09/04 03:40:37;;;;;;;1.05;0.40;;;16.10;99.90;;;;;;5053467;28;20032;-83
2022/09/04 03:43:12;;;;;;;3.72;0.50;;;16.10;99.90;;;;;;5053792;28;20111;-85
2022/09/04 03:46:14;;;;;;;0.70;0.50;;;16.10;99.90;;;;;;5035298;28;20025;-84
2022/09/04 03:49:22;;;;;;;1.17;0.47;;;16.20;99.90;;;;;;5034554;28;20048;-84
2022/09/04 03:51:54;;;;;;;3.15;0.47;;;16.20;99.90;;;;;;5021932;28;20044;-84
2022/09/04 03:54:28;;;;;;;1.85;0.50;;;16.30;99.90;;;;;;5034503;28;20155;-84
2022/09/04 03:57:29;;;;;;;2.13;0.50;;;16.20;99.90;;;;;;5035340;28;20494;-85
2022/09/04 04:00:00;;;;;;;1.02;0.55;;;16.30;99.90;;;;;;5020456;28;20112;-85
2022/09/04 04:02:36;;;;;;;3.17;0.40;;;16.30;99.90;;;;;;5035150;28;20048;-85
2022/09/04 04:05:15;;;;;;;6.30;0.40;;;16.30;99.90;;;;;;5035371;28;20036;-85
2022/09/04 04:08:00;;;;;;;0.95;0.50;;;16.20;99.90;;;;;;5034851;28;20263;-85
2022/09/04 04:10:57;;;;;;;2.53;0.70;;;16.20;99.90;;;;;;5035125;28;20037;-84
2022/09/04 04:13:32;;;;;;;;;;;16.20;99.90;;;;;;5035332;28;20048;-84
2022/09/04 04:16:26;;;;;;;1.27;0.40;;;16.20;99.90;;;;;;5035153;28;19912;-84
2022/09/04 04:18:55;;;;;;;0.77;0.40;;;16.30;99.90;;;;;;5034535;28;20040;-85
2022/09/04 04:21:36;;;;;;;0.90;0.40;;;16.30;99.90;;;;;;5052953;28;20025;-84
2022/09/04 04:24:20;;;;;;;1.27;0.40;;;16.30;99.90;;;;;;5034421;28;20508;-84
2022/09/04 04:27:15;;;;;;;1.13;0.65;;;16.30;99.90;;;;;;5034806;28;20037;-84
2022/09/04 04:30:08;;;;;;;2.60;0.63;;;16.40;99.90;;;;;;5034561;28;20028;-85
2022/09/04 04:32:51;;;;;;;0.93;0.40;;;16.50;99.90;;;;;;5034529;28;20031;-84
2022/09/04 04:35:35;;;;;;;2.20;0.40;;;16.50;99.90;;;;;;5051747;28;20033;-84
2022/09/04 04:38:14;;;;;;;0.77;0.45;;;16.50;99.90;;;;;;5051892;28;20036;-85
2022/09/04 04:41:11;;;;;;;4.63;0.60;;;16.50;99.90;;;;;;5052147;28;20476;-85
2022/09/04 04:43:43;;;;;;;1.75;0.40;;;16.60;99.90;;;;;;5038576;28;20037;-84
2022/09/04 04:46:37;;;;;;;1.45;0.40;;;16.60;99.90;;;;;;5049331;28;20044;-85
2022/09/04 04:49:19;;;;;;;1.40;0.40;;;16.70;99.90;;;;;;5033065;28;20036;-85
2022/09/04 04:52:02;;;;;;;1.77;0.30;;;16.60;99.90;;;;;;5011921;28;20067;-85
2022/09/04 04:54:50;;;;;;;0.80;0.40;;;16.70;99.90;;;;;;5013321;28;20061;-85
2022/09/04 04:57:46;;;;;;;0.57;0.30;;;16.70;99.90;;;;;;5014687;28;20025;-85
2022/09/04 05:00:47;;;;;;;2.13;0.40;;;16.70;99.90;;;;;;5015040;28;20053;-84
2022/09/04 05:03:42;;;;;;;1.20;0.43;;;16.70;99.90;;;;;;4974742;28;20023;-83
2022/09/04 05:06:19;;;;;;;2.63;0.80;;;16.70;99.90;;;;;;5020355;28;20041;-85
2022/09/04 05:09:10;;;;;;;2.78;0.40;;;16.70;99.90;;;;;;5051912;28;20622;-84
2022/09/04 05:11:42;;;;;;;0.95;0.40;;;16.90;99.90;;;;;;5033595;28;20493;-84
2022/09/04 05:14:24;;;;;;;1.25;0.40;;;17.00;99.90;;;;;;5033411;28;20405;-85
2022/09/04 05:17:05;;;;;;;1.98;0.60;;;16.90;99.90;;;;;;5039758;28;20515;-84
2022/09/04 05:19:49;;;;;;;2.25;0.40;;;17.00;99.90;;;;;;5038166;28;20124;-86
2022/09/04 05:22:18;;;;;;;0.80;0.40;;;17.00;99.90;;;;;;5033355;28;20119;-85
2022/09/04 05:25:09;;;;;;;5.45;0.57;;;17.10;99.90;;;;;;5033142;28;20098;-85
2022/09/04 05:27:51;;;;;;;0.88;0.43;;;17.10;99.90;;;;;;5032129;28;20097;-85
2022/09/04 05:30:59;;;;;;;1.25;0.38;;;17.10;99.90;;;;;;5033847;28;20033;-86
2022/09/04 05:33:55;;;;;;;2.45;0.40;;;17.30;99.90;;;;;;5005589;28;20033;-84
2022/09/04 05:36:36;;;;;;;0.57;0.40;;;17.30;99.90;;;;;;5033077;28;20068;-84
2022/09/04 05:39:23;;;;;;;0.60;0.40;;;17.40;99.90;;;;;;5032910;28;20397;-85
2022/09/04 05:42:29;;;;;;;5.25;0.40;;;17.50;99.90;;;;;;5017385;28;20113;-85
2022/09/04 05:45:04;;;;;;;4.38;0.40;;;17.60;99.90;;;;;;5012388;28;20047;-85
2022/09/04 05:47:48;;;;;;;0.90;0.38;;;17.70;99.90;;;;;;5009432;28;20057;-85
2022/09/04 05:50:44;;;;;;;1.73;0.50;;;17.80;99.90;;;;;;5017405;28;20152;-84
2022/09/04 05:53:28;;;;;;;1.35;0.30;;;17.90;99.90;;;;;;5029211;28;20026;-85
2022/09/04 05:56:31;;;;;;;1.52;0.50;;;18.00;99.90;;;;;;5029808;28;20036;-83
2022/09/04 05:59:21;;;;;;;2.60;0.40;;;18.00;99.90;;;;;;5042991;28;20124;-85
2022/09/04 06:02:04;;;;;;;2.47;0.43;;;18.00;99.90;;;;;;5049807;28;20108;-84
2022/09/04 06:05:04;;;;;;;1.00;0.40;;;18.10;99.90;;;;;;5049842;28;20039;-85
2022/09/04 06:07:53;;;;;;;1.35;0.50;;;18.10;99.90;;;;;;5049090;28;20486;-86
2022/09/04 06:10:42;;;;;;;1.67;0.45;;;18.20;99.90;;;;;;5049003;28;20485;-85
2022/09/04 06:13:24;;;;;;;5.57;0.40;;;18.20;99.90;;;;;;5049430;28;20109;-83
2022/09/04 06:16:32;;;;;;;0.55;0.30;;;18.10;99.90;;;;;;5049064;28;20107;-85
2022/09/04 06:18:57;;;;;;;0.90;0.40;;;18.20;99.90;;;;;;5049001;28;20041;-85
2022/09/04 06:21:47;;;;;;;1.30;0.40;;;18.20;99.90;;;;;;5051151;28;20095;-85
2022/09/04 06:24:27;;;;;;;0.90;0.47;;;18.20;99.90;;;;;;5049323;28;20061;-85
2022/09/04 06:27:09;;;;;;;1.55;0.40;;;18.20;99.90;;;;;;5049050;28;20362;-86
2022/09/04 06:29:53;;;;;;;1.17;0.60;;;18.30;99.90;;;;;;5049591;28;20044;-85
2022/09/04 06:32:28;;;;;;;2.33;1.00;;;18.30;99.90;;;;;;5049111;28;20473;-84
2022/09/04 06:35:31;;;;;;;0.82;0.40;;;18.40;99.90;;;;;;5046604;28;20267;-85
2022/09/04 06:38:15;;;;;;;1.27;0.50;;;18.60;99.90;;;;;;5028972;28;20033;-85
2022/09/04 06:41:26;;;;;;;3.90;0.50;;;18.70;99.90;;;;;;5029353;28;20044;-85
2022/09/04 06:43:58;;;;;;;1.40;0.47;;;18.80;99.90;;;;;;4995826;28;20030;-86
2022/09/04 06:46:52;;;;;;;3.30;0.43;;;18.90;99.90;;;;;;5028973;28;20057;-85
2022/09/04 06:49:26;;;;;;;1.00;0.50;;;19.10;99.90;;;;;;5029110;28;20033;-86
2022/09/04 06:52:32;;;;;;;1.67;0.50;;;19.40;99.90;;;;;;5033757;28;20486;-85
2022/09/04 06:55:03;;;;;;;1.42;0.40;;;19.60;99.90;;;;;;5035869;28;20030;-85
2022/09/04 06:57:49;;;;;;;3.17;0.55;;;19.90;99.90;;;;;;5036934;28;20029;-86
2022/09/04 07:00:16;;;;;;;1.88;0.60;;;20.10;99.90;;;;;;5035338;28;20038;-85
2022/09/04 07:02:43;;;;;;;1.92;0.50;;;20.30;99.90;;;;;;5035930;28;20022;-86
2022/09/04 07:05:20;;;;;;;0.80;0.40;;;20.80;99.90;;;;;;5035581;28;20482;-85
2022/09/04 07:07:52;;;;;;;1.67;0.70;;;21.30;99.90;;;;;;5036125;28;20039;-86
2022/09/04 07:10:32;;;;;;;1.85;0.60;;;21.80;99.90;;;;;;5036227;28;20365;-85
2022/09/04 07:13:16;;;;;;;3.28;0.63;;;22.20;99.90;;;;;;5036837;28;20450;-85
2022/09/04 07:15:48;;;;;;;5.72;0.75;;;22.60;99.90;;;;;;5037249;28;20032;-86
2022/09/04 07:18:32;;;;;;;2.38;0.80;;;22.90;99.60;;;;;;5043639;28;20036;-86
2022/09/04 07:21:16;;;;;;;0.93;0.50;;;23.30;98.70;;;;;;5055075;28;20072;-86
2022/09/04 07:23:43;;;;;;;1.13;0.55;;;23.70;97.80;;;;;;5056841;28;20025;-87
2022/09/04 07:26:10;;;;;;;1.50;0.70;;;23.70;97.80;;;;;;5049250;28;20037;-84
2022/09/04 07:28:55;;;;;;;0.88;0.60;;;23.70;97.70;;;;;;5037105;28;20107;-86
2022/09/04 07:31:42;;;;;;;1.52;0.57;;;23.60;97.90;;;;;;5035156;28;20041;-86
2022/09/04 07:34:44;;;;;;;2.15;0.70;;;23.40;97.10;;;;;;5035165;28;20017;-86
2022/09/04 07:37:38;;;;;;;2.05;0.75;;;23.70;97.00;;;;;;5034697;28;20041;-86
2022/09/04 07:40:22;;;;;;;1.80;0.70;;;24.00;95.90;;;;;;5035873;28;20108;-86
2022/09/04 07:43:04;;;;;;;3.63;0.70;;;24.50;95.60;;;;;;5035693;28;20060;-87
2022/09/04 07:45:46;;;;;;;4.50;0.60;;;25.60;94.30;;;;;;5038152;28;20029;-86
2022/09/04 07:48:30;;;;;;;3.53;1.00;;;26.40;92.50;;;;;;5060860;28;20050;-86
2022/09/04 07:51:08;;;;;;;7.88;0.95;;;26.90;90.00;;;;;;5017510;28;20034;-86
2022/09/04 07:53:37;;;;;;;1.23;0.80;;;26.50;90.10;;;;;;5022110;28;20021;-86
2022/09/04 07:56:10;;;;;;;2.85;0.90;;;26.50;90.30;;;;;;5039136;28;20021;-87
2022/09/04 07:58:49;;;;;;;2.38;0.80;;;27.20;89.10;;;;;;5038994;28;20374;-86
2022/09/04 08:01:42;;;;;;;2.45;0.90;;;27.90;86.80;;;;;;5038879;28;20031;-87
2022/09/04 08:04:28;;;;;;;3.63;0.90;;;28.40;81.40;;;;;;5034555;28;20024;-86
2022/09/04 08:07:04;;;;;;;4.72;0.68;;;28.30;80.10;;;;;;5035467;28;20045;-87
2022/09/04 08:09:48;;;;;;;0.93;0.60;;;28.50;79.00;;;;;;5035370;28;20070;-87
2022/09/04 08:12:17;;;;;;;2.35;0.77;;;28.30;77.90;;;;;;5035639;28;20036;-87
2022/09/04 08:14:53;;;;;;;3.22;0.60;;;28.30;78.10;;;;;;5036074;28;20055;-86
2022/09/04 08:17:48;;;;;;;1.33;0.70;;;28.30;77.20;;;;;;5035129;28;20017;-84
2022/09/04 08:20:25;;;;;;;2.55;1.00;;;28.40;75.90;;;;;;5035095;28;20033;-84
2022/09/04 08:23:07;;;;;;;1.85;0.63;;;29.00;72.80;;;;;;5035134;28;20075;-85
2022/09/04 08:26:10;;;;;;;1.40;0.70;;;29.30;71.60;;;;;;5035552;28;20033;-85
2022/09/04 08:29:04;;;;;;;1.90;0.70;;;29.50;71.10;;;;;;5035003;28;20029;-85
2022/09/04 08:31:41;;;;;;;1.67;0.80;;;29.90;68.70;;;;;;5035118;28;20090;-85
2022/09/04 08:34:33;;;;;;;1.98;0.82;;;29.30;69.50;;;;;;5040614;28;20036;-84
2022/09/04 08:37:22;;;;;;;3.28;1.05;;;29.00;69.10;;;;;;5065381;28;20070;-86
2022/09/04 08:39:56;;;;;;;2.45;0.80;;;28.60;70.90;;;;;;5064716;28;20075;-85
2022/09/04 08:43:05;;;;;;;2.15;1.00;;;28.30;71.30;;;;;;5055297;28;20094;-84
2022/09/04 08:45:43;;;;;;;9.82;1.48;;;28.20;72.20;;;;;;5004306;28;20454;-85
2022/09/04 08:48:31;;;;;;;2.85;0.98;;;28.30;70.90;;;;;;5054984;28;20091;-85
2022/09/04 08:51:18;;;;;;;4.53;1.20;;;28.10;71.60;;;;;;5054798;28;21141;-84
2022/09/04 08:53:53;;;;;;;3.53;1.10;;;28.00;70.50;;;;;;5054793;28;20059;-85
2022/09/04 08:56:47;;;;;;;7.63;1.63;;;27.70;71.50;;;;;;5054769;28;20111;-84
2022/09/04 08:59:56;;;;;;;5.70;1.17;;;27.80;72.50;;;;;;5054932;28;20102;-86
2022/09/04 09:02:37;;;;;;;2.92;1.33;;;28.50;72.40;;;;;;5054818;28;20048;-85
2022/09/04 09:05:33;;;;;;;2.58;1.23;;;29.10;69.30;;;;;;5072238;28;20150;-86
2022/09/04 09:08:37;;;;;;;2.10;1.20;;;29.60;68.50;;;;;;5054506;28;20055;-85
2022/09/04 09:11:15;;;;;;;4.13;1.35;;;30.40;67.50;;;;;;5054594;28;20028;-86
2022/09/04 09:14:11;;;;;;;1.77;1.00;;;30.20;66.90;;;;;;5054175;28;20036;-84
2022/09/04 09:17:11;;;;;;;7.50;2.13;;;29.70;66.70;;;;;;5071837;28;20040;-85
2022/09/04 09:19:50;;;;;;;6.70;1.42;;;29.10;66.20;;;;;;5053999;28;20032;-85
2022/09/04 09:22:48;;;;;;;7.13;1.25;;;28.50;67.90;;;;;;5072036;28;20032;-85
2022/09/04 09:25:32;;;;;;;9.23;1.60;;;27.90;69.60;;;;;;5054185;28;20032;-86
2022/09/04 09:28:27;;;;;;;7.57;1.50;;;27.30;70.70;;;;;;5068058;28;20036;-85
2022/09/04 09:31:30;;;;;;;2.85;1.40;;;26.80;71.40;;;;;;5071254;28;20044;-85
2022/09/04 09:33:55;;;;;;;2.95;1.35;;;26.20;74.20;;;;;;5071433;28;20028;-86
2022/09/04 09:36:35;;;;;;;2.92;1.70;;;25.70;75.30;;;;;;5071347;28;20086;-86
2022/09/04 09:39:16;;;;;;;2.95;1.20;;;25.50;77.00;;;;;;5053605;28;20055;-85
2022/09/04 09:42:00;;;;;;;2.47;1.17;;;25.20;78.20;;;;;;5054357;28;20025;-85
2022/09/04 09:44:50;;;;;;;2.15;1.08;;;24.90;79.80;;;;;;5054194;28;20074;-85
2022/09/04 09:47:18;;;;;;;2.78;1.10;;;24.60;81.90;;;;;;5048757;28;20060;-84
2022/09/04 09:50:15;;;;;;;2.00;1.10;;;24.50;83.20;;;;;;5050312;28;20066;-86
2022/09/04 09:53:02;;;;;;;1.90;1.15;;;24.30;86.70;;;;;;5050844;28;20032;-85
2022/09/04 09:56:06;;;;;;;3.78;1.23;;;24.10;86.60;;;;;;5050111;28;20037;-85
2022/09/04 09:58:46;;;;;;;3.38;0.80;;;23.90;89.60;;;;;;5049877;28;20083;-84
2022/09/04 10:01:23;;;;;;;3.65;1.13;;;23.60;90.50;;;;;;5051230;28;20043;-84
2022/09/04 10:04:10;;;;;;;2.83;1.05;;;23.40;92.10;;;;;;5049699;28;20024;-85
2022/09/04 10:06:45;;;;;;;;;;;23.20;93.10;;;;;;5049920;28;20082;-83
2022/09/04 10:09:48;;;;;;;4.60;1.10;;;22.90;94.40;;;;;;5049417;28;19909;-85
2022/09/04 10:12:48;;;;;;;3.45;1.38;;;22.90;95.70;;;;;;5049528;28;20029;-85
2022/09/04 10:15:38;;;;;;;6.13;1.50;;;22.70;97.20;;;;;;5050949;28;20025;-85
2022/09/04 10:18:32;;;;;;;4.13;1.45;;;22.60;97.70;;;;;;5048841;28;20544;-84
2022/09/04 10:21:20;;;;;;;2.67;1.88;;;22.50;98.40;;;;;;5049981;28;20397;-85
2022/09/04 10:24:06;;;;;;;7.63;1.25;;;22.40;99.30;;;;;;5049080;28;20104;-83
2022/09/04 10:26:53;;;;;;;4.40;1.42;;;22.30;99.90;;;;;;5039299;28;20476;-82
2022/09/04 10:29:40;;;;;;;4.45;1.27;;;22.20;99.90;;;;;;5027916;28;20030;-84
2022/09/04 10:32:18;;;;;;;2.55;1.20;;;22.10;99.90;;;;;;5009752;28;20502;-84
2022/09/04 10:35:30;;;;;;;4.43;1.50;;;22.10;99.90;;;;;;5044378;28;20075;-83
2022/09/04 10:38:18;;;;;;;2.75;1.52;;;22.00;99.90;;;;;;4948886;29;20067;-83
2022/09/04 10:41:16;;;;;;;3.92;1.77;;;22.00;99.90;;;;;;4934296;29;20603;-84
2022/09/04 10:44:14;;;;;;;2.45;1.40;;;21.90;99.90;;;;;;5019529;28;20029;-84
2022/09/04 10:46:48;;;;;;;;;;;21.80;99.90;;;;;;5033271;28;20059;-84
2022/09/04 10:49:30;;;;;;;3.30;1.45;;;21.80;99.90;;;;;;5048768;28;19905;-82
2022/09/04 10:52:23;;;;;;;2.35;1.75;;;21.70;99.90;;;;;;5031184;28;20041;-84
2022/09/04 10:54:54;;;;;;;1.98;1.40;;;21.60;99.90;;;;;;5049929;28;20041;-84
2022/09/04 10:57:36;;;;;;;4.75;1.38;;;21.60;99.90;;;;;;5048716;28;20084;-83
2022/09/04 11:00:15;;;;;;;6.20;1.60;;;21.50;99.90;;;;;;5049214;28;20082;-84
2022/09/04 11:03:13;;;;;;;3.05;1.77;;;21.40;99.90;;;;;;5049853;28;20498;-84
2022/09/04 11:06:09;;;;;;;3.05;1.90;;;21.40;99.90;;;;;;5030355;28;20033;-85
2022/09/04 11:08:54;;;;;;;2.90;1.45;;;21.30;99.90;;;;;;5049724;28;20029;-84
2022/09/04 11:11:23;;;;;;;3.78;1.58;;;21.40;99.90;;;;;;5030252;28;20515;-83
2022/09/04 11:14:27;;;;;;;5.10;1.35;;;21.40;99.90;;;;;;5031244;28;20401;-84
2022/09/04 11:17:11;;;;;;;3.40;1.55;;;21.60;99.90;;;;;;5031422;28;20078;-83
2022/09/04 11:19:56;;;;;;;3.33;1.60;;;21.70;99.90;;;;;;5031431;28;20032;-84
2022/09/04 11:22:40;;;;;;;5.80;1.95;;;21.90;99.90;;;;;;5031753;28;20564;-83
2022/09/04 11:25:32;;;;;;;3.83;1.63;;;22.00;99.90;;;;;;5031733;28;20808;-83
2022/09/04 11:28:11;;;;;;;4.50;1.55;;;22.00;99.90;;;;;;5031882;28;20111;-85
2022/09/04 11:30:58;;;;;;;4.03;1.70;;;22.00;99.90;;;;;;5049787;28;20068;-84
2022/09/04 11:33:52;;;;;;;2.28;1.50;;;22.10;99.90;;;;;;5031581;28;20025;-85
2022/09/04 11:36:55;;;;;;;5.53;1.92;;;22.20;99.90;;;;;;5030398;28;20528;-85
2022/09/04 11:39:43;;;;;;;5.22;1.50;;;22.30;99.90;;;;;;5031988;28;20490;-84
2022/09/04 11:42:33;;;;;;;3.53;1.23;;;22.50;99.90;;;;;;5042739;28;20121;-85
2022/09/04 11:45:19;;;;;;;4.20;2.05;;;22.70;99.90;;;;;;5035551;28;20090;-83
2022/09/04 11:47:57;;;;;;;5.78;1.52;;;23.30;99.90;;;;;;5051224;28;20048;-85
2022/09/04 11:50:47;;;;;;;10.00;1.63;;;23.80;99.90;;;;;;5064046;28;20032;-86
2022/09/04 11:53:39;;;;;;;4.82;1.83;;;24.30;99.90;;;;;;5073351;28;20028;-85
2022/09/04 11:56:43;;;;;;;2.92;1.35;;;24.50;99.90;;;;;;5073699;28;20024;-86
2022/09/04 11:59:31;;;;;;;4.25;2.33;;;24.70;99.90;;;;;;5037477;28;20029;-85
2022/09/04 12:02:19;;;;;;;2.22;1.00;;;24.70;99.90;;;;;;5030803;28;20134;-86
2022/09/04 12:05:07;;;;;;;2.88;1.25;;;24.90;99.90;;;;;;5034802;28;20059;-85
2022/09/04 12:07:51;;;;;;;6.10;1.48;;;24.90;99.90;;;;;;5016136;28;20037;-85
2022/09/04 12:10:29;;;;;;;1.67;1.10;;;25.00;99.90;;;;;;5060708;28;20021;-85
2022/09/04 12:13:17;;;;;;;4.57;1.17;;;24.90;99.90;;;;;;5062545;28;20021;-86
2022/09/04 12:15:43;;;;;;;2.35;1.17;;;25.10;99.80;;;;;;5021052;28;20030;-86
2022/09/04 12:18:43;;;;;;;3.55;1.63;;;25.00;99.90;;;;;;5043002;28;20032;-84
2022/09/04 12:21:46;;;;;;;3.42;1.40;;;24.90;99.90;;;;;;5007566;28;20038;-85
2022/09/04 12:24:11;;;;;;;4.57;1.20;;;24.90;99.90;;;;;;5015386;28;20095;-85
2022/09/04 12:27:01;;;;;;;2.25;1.20;;;24.80;99.90;;;;;;5028163;28;20096;-85
2022/09/04 12:29:58;;;;;;;3.40;1.58;;;24.80;99.90;;;;;;5052446;28;20021;-85
2022/09/04 12:32:46;;;;;;;2.63;1.05;;;24.80;99.50;;;;;;5063645;28;20040;-85
2022/09/04 12:36:09;;;;;;;2.53;1.23;;;24.80;99.60;;;;;;5054742;28;20040;-84
2022/09/04 12:38:51;;;;;;;2.03;1.23;;;24.80;98.70;;;;;;4993593;28;20069;-85
2022/09/04 12:41:18;;;;;;;2.33;1.30;;;24.80;99.20;;;;;;5017096;28;20029;-86
2022/09/04 12:44:03;;;;;;;3.58;1.38;;;24.70;99.20;;;;;;5034649;28;20025;-86
2022/09/04 12:47:01;;;;;;;2.53;1.40;;;24.90;99.00;;;;;;5039238;28;20127;-86
2022/09/04 12:50:04;;;;;;;1.75;0.88;;;25.00;98.90;;;;;;5034030;28;20389;-84
2022/09/04 12:52:54;;;;;;;3.17;1.00;;;25.00;98.90;;;;;;5035175;28;20124;-85
2022/09/04 12:55:44;;;;;;;4.55;1.38;;;24.90;98.10;;;;;;5052061;28;20017;-85
2022/09/04 12:58:32;;;;;;;3.38;1.25;;;24.90;98.30;;;;;;5034505;28;20032;-85
2022/09/04 13:01:22;;;;;;;1.77;1.00;;;24.90;98.10;;;;;;5034808;28;20028;-85
2022/09/04 13:04:10;;;;;;;5.10;1.58;;;24.80;98.80;;;;;;5034335;28;20104;-84
2022/09/04 13:06:42;;;;;;;2.67;1.35;;;24.80;98.70;;;;;;5033410;28;20037;-85
2022/09/04 13:09:08;;;;;;;8.00;1.52;;;25.00;98.90;;;;;;5051901;28;20075;-85
2022/09/04 13:12:00;;;;;;;1.88;1.15;;;25.20;98.80;;;;;;5033676;28;20036;-84
2022/09/04 13:14:28;;;;;;;2.53;1.10;;;25.50;98.80;;;;;;5033456;28;20029;-85
2022/09/04 13:17:23;;;;;;;1.83;1.08;;;25.60;98.00;;;;;;5034171;28;20028;-85
2022/09/04 13:20:26;;;;;;;2.08;1.08;;;25.50;98.10;;;;;;5025103;28;20413;-85
2022/09/04 13:23:10;;;;;;;2.20;1.35;;;25.50;98.20;;;;;;5034092;28;20029;-85
2022/09/04 13:25:52;;;;;;;5.47;1.60;;;25.60;97.80;;;;;;5033500;28;20033;-85
2022/09/04 13:28:23;;;;;;;2.92;1.23;;;25.70;97.30;;;;;;5034006;28;20078;-84
2022/09/04 13:31:18;;;;;;;2.50;1.50;;;25.70;97.60;;;;;;5033643;28;20023;-85
2022/09/04 13:33:59;;;;;;;4.03;1.45;;;25.60;96.20;;;;;;5014881;28;20037;-85
2022/09/04 13:36:57;;;;;;;2.92;1.30;;;25.50;96.10;;;;;;5034068;28;20025;-85
2022/09/04 13:39:34;;;;;;;8.70;1.17;;;25.50;95.30;;;;;;5032949;28;20067;-85
2022/09/04 13:42:24;;;;;;;3.10;1.42;;;25.30;94.90;;;;;;5031608;28;20485;-85
2022/09/04 13:45:06;;;;;;;3.10;1.30;;;25.00;94.10;;;;;;5048834;28;20032;-84
2022/09/04 13:47:41;;;;;;;2.88;1.20;;;24.90;94.40;;;;;;5031855;28;20061;-84
2022/09/04 13:50:31;;;;;;;5.28;1.25;;;24.80;94.70;;;;;;5042748;28;20571;-84
2022/09/04 13:53:10;;;;;;;4.28;1.15;;;24.70;95.50;;;;;;5053414;28;20020;-85
2022/09/04 13:55:45;;;;;;;3.20;1.40;;;24.70;95.50;;;;;;5071451;28;20068;-85
2022/09/04 13:58:20;;;;;;;2.28;1.10;;;24.90;95.70;;;;;;5053021;28;20030;-86
2022/09/04 14:00:53;;;;;;;4.45;0.90;;;24.90;95.00;;;;;;5051959;28;20024;-84
2022/09/04 14:03:48;;;;;;;5.32;1.20;;;24.90;95.20;;;;;;5066252;28;20052;-86
2022/09/04 14:06:17;;;;;;;4.03;1.30;;;25.10;93.60;;;;;;5046215;28;20504;-86
2022/09/04 14:08:44;;;;;;;2.92;1.17;;;25.00;93.50;;;;;;5052797;28;20037;-85
2022/09/04 14:11:39;;;;;;;2.95;0.95;;;24.90;94.00;;;;;;5052734;28;20028;-85
2022/09/04 14:14:13;;;;;;;6.53;1.23;;;24.90;94.40;;;;;;5052587;28;20492;-86
2022/09/04 14:16:42;;;;;;;3.53;1.20;;;24.90;94.60;;;;;;5053090;28;20028;-86
2022/09/04 14:19:36;;;;;;;2.80;1.27;;;24.90;94.00;;;;;;5070768;28;20427;-86
2022/09/04 14:22:15;;;;;;;2.88;1.05;;;25.00;93.30;;;;;;5070351;28;20032;-85